This is the latest recevied weather packets stored in our database for station/object N7CW. If no packets are shown the sender has not sent any weather packets the latest 10 day(s).
| Time | Temp. | Humidity | Pressure | Rain* | Wind** | Luminosity | Snow |
|---|---|---|---|---|---|---|---|
| 1777368651 | 0° C | 67% | 1016.8 hPa | 0 mm | - | 0 W/m² | - |
| 1777368346 | 0.56° C | 65% | 1017.1 hPa | 0 mm | - | 0 W/m² | - |
| 1777368044 | 0.56° C | 66% | 1017.1 hPa | 0 mm | - | 0 W/m² | - |
| 1777367741 | 0.56° C | 65% | 1017.1 hPa | 0 mm | - | 0 W/m² | - |
| 1777367437 | 0° C | 66% | 1017 hPa | 0 mm | - | 0 W/m² | - |
| 1777367136 | 0.56° C | 64% | 1017.3 hPa | 0 mm | - | 0 W/m² | - |
| 1777366527 | 1.11° C | 65% | 1017.3 hPa | 0 mm | - | 0 W/m² | - |
| 1777366221 | 1.11° C | 64% | 1017.2 hPa | 0 mm | - | 0 W/m² | - |
| 1777365918 | 0.56° C | 64% | 1017.2 hPa | 0 mm | - | 0 W/m² | - |
| 1777365614 | 1.11° C | 63% | 1017.3 hPa | 0 mm | - | 0 W/m² | - |
| 1777365314 | 1.67° C | 61% | 1017.3 hPa | 0 mm | - | 0 W/m² | - |
| 1777365012 | 1.67° C | 61% | 1017.2 hPa | 0 mm | - | 0 W/m² | - |
| 1777364709 | 1.67° C | 61% | 1017.3 hPa | 0 mm | - | 0 W/m² | - |
| 1777364404 | 2.22° C | 61% | 1017.3 hPa | 0 mm | - | 0 W/m² | - |
| 1777364100 | 2.22° C | 60% | 1017.4 hPa | 0 mm | - | 0 W/m² | - |
| 1777363796 | 2.78° C | 58% | 1017.4 hPa | 0 mm | - | 0 W/m² | - |
| 1777363492 | 2.78° C | 59% | 1017.5 hPa | 0 mm | - | 0 W/m² | - |
| 1777363190 | 2.78° C | 57% | 1017.3 hPa | 0 mm | - | 0 W/m² | - |
| 1777362887 | 2.22° C | 59% | 1017.3 hPa | 0 mm | - | 0 W/m² | - |
| 1777362584 | 2.78° C | 57% | 1017.4 hPa | 0 mm | - | 0 W/m² | - |
| 1777362282 | 2.78° C | 58% | 1017.5 hPa | 0 mm | - | 0 W/m² | - |
| 1777361980 | 1.67° C | 59% | 1017.4 hPa | 0 mm | - | 0 W/m² | - |
| 1777361677 | 1.11° C | 62% | 1017.4 hPa | 0 mm | - | 0 W/m² | - |
| 1777361373 | 0.56° C | 62% | 1017.5 hPa | 0 mm | - | 0 W/m² | - |
| 1777361070 | 0.56° C | 61% | 1017.8 hPa | 0 mm | - | 0 W/m² | - |
* Rain latest hour (hover to see other rain measurements)
** Current wind speed in m/s (hover to see current wind gust speed)